« 平成26年度緊急消防援助隊中部ブロック合同訓練 能登空港 2014/11/15 sat | トップページ | 平成26年度緊急消防援助隊中部ブロック合同訓練「部隊参集訓練」 能登 2014/11/15 sat »

2014/11/16

定点 富山空港 2014/11/16 sun

RJNT 160300Z 35006KT 310V020 9999 FEW030 BKN/// 13/05 Q1024

20141116_rjnt_00b18657

20141116_rjnt_01b18657

CAL171 RJNT-RCTP B-18657 B737-8FH

20141116_rjnt_02ja6768

JA6768 B412 富山県消防防災

20141116_rjnt_03ja6789

JA6789 MD900 AAK

RJNT 160500Z 36008KT 9999 FEW030 SCT080 BKN120 13/04 Q1023

20141116_rjnt_04ja8595

20141116_rjnt_05ja8595

ADO120 RJCC-RJNT JA8595 B737-54K

20141116_rjnt_06ja8357

ANA885 RJTT-RJNT JA8357 B767-381

20141116_rjnt_07ja8357

管制塔の耐震工事が終了して、ロボットのような様相に・・

20141116_rjnt_08ja8595

ADO121 RJNT-RJCC JA8595 B737-54K

20141116_rjnt_09ja8363

ANA888 RJNT-RJTT JA8357 B767-381

RJNT 160700Z 01003KT 9999 FEW030 SCT090 BKN130 12/04 Q1023

20141116_rjnt_10ja8363

20141116_rjnt_11ja8363

ANA887 RJTT-RJNT JA8363 B767-381

RJTT-RJNT
ANA     /882 JA8579
ANA881/884 JA8363
ANA883/886 JA825A
ANA885/888 JA8357
ANA887/890 JA8363
ANA889/892 JA819A
ANA891       JA8290

RJCC-RJNT
ADO120/121 JA8595

RKSI-RJNT
AAR128/127 HL8257

RCTP-RJNT
CAL170/171 B-18657

|

« 平成26年度緊急消防援助隊中部ブロック合同訓練 能登空港 2014/11/15 sat | トップページ | 平成26年度緊急消防援助隊中部ブロック合同訓練「部隊参集訓練」 能登 2014/11/15 sat »

富山空港」カテゴリの記事

コメント

コメントを書く



(ウェブ上には掲載しません)


コメントは記事投稿者が公開するまで表示されません。



トラックバック


この記事へのトラックバック一覧です: 定点 富山空港 2014/11/16 sun:

« 平成26年度緊急消防援助隊中部ブロック合同訓練 能登空港 2014/11/15 sat | トップページ | 平成26年度緊急消防援助隊中部ブロック合同訓練「部隊参集訓練」 能登 2014/11/15 sat »